West Charlton, New York
Current Conditions -  °F | °C
As of 8:35 PM on Saturday 25 Oct 2014 (Local Time) from KNY0 Reporting Station
Broken Clouds Broken Clouds  
Wind Chill: 52°   Ceiling: 4800
Heat Index: 52°   Visibility: 10mi
Dew Point: 47°   Wind: 12mph
Humidity: 81%   Direction: 290°WNW
Pressure: 29.55"   Gusts: 17mph
Location:  42.9741°N, 74.1271°W
Report Text: KNY0 260035Z AUTO 29010G15KT 10SM SCT024 SCT042 BKN048 11/08 A2955 RMK AO2 T01120081
Loading
Personal Weather Stations






























Interactive Weather Map
Tropical Storm Tracking
New forecast layout! Learn more

10-Day Weather Forecast

Advertisements
Track Severe Weather on mobile